Time;durP1;ratioP1;P1;durP2;ratioP2;P2;SDS_P1;SDS_P2;PMS_P1;PMS_P2;Temp;Humidity;BMP_temperature;BMP_pressure;BME280_temperature;BME280_humidity;BME280_pressure;Samples;Min_cycle;Max_cycle;Signal;HPM_P1;HPM_P2
2023/04/12 00:02:06;;;;;;;6.00;1.85;;;19.00;47.20;;;;;;5094939;28;20190;-74
2023/04/12 00:04:34;;;;;;;5.63;1.73;;;18.90;47.10;;;;;;5094313;28;20267;-73
2023/04/12 00:07:01;;;;;;;4.60;1.25;;;18.90;47.10;;;;;;5093069;28;20664;-72
2023/04/12 00:09:29;;;;;;;5.30;1.77;;;18.90;47.10;;;;;;5094253;28;20758;-71
2023/04/12 00:11:57;;;;;;;7.10;1.95;;;19.00;47.90;;;;;;5094426;28;20197;-71
2023/04/12 00:14:24;;;;;;;5.78;1.83;;;18.90;47.10;;;;;;5093163;28;20218;-72
2023/04/12 00:16:53;;;;;;;4.80;1.90;;;18.90;47.10;;;;;;5094035;28;20186;-72
2023/04/12 00:19:24;;;;;;;5.38;2.00;;;18.90;47.10;;;;;;5094363;28;20222;-72
2023/04/12 00:21:51;;;;;;;5.28;1.70;;;18.90;47.10;;;;;;5091984;28;20264;-72
2023/04/12 00:24:19;;;;;;;9.18;2.08;;;18.90;47.10;;;;;;5094070;28;20217;-74
2023/04/12 00:26:46;;;;;;;5.57;1.55;;;18.80;47.10;;;;;;5093840;28;20659;-72
2023/04/12 00:29:13;;;;;;;3.63;1.40;;;18.90;47.10;;;;;;5093991;28;20222;-72
2023/04/12 00:31:40;;;;;;;6.15;1.77;;;18.90;47.10;;;;;;5092775;28;20340;-74
2023/04/12 00:34:09;;;;;;;7.32;1.80;;;18.80;47.10;;;;;;5088659;28;20217;-72
2023/04/12 00:36:36;;;;;;;6.90;1.73;;;18.90;47.10;;;;;;5073254;28;20710;-72
2023/04/12 00:39:03;;;;;;;7.30;1.60;;;18.90;47.10;;;;;;5073315;28;20268;-72
2023/04/12 00:41:30;;;;;;;7.93;1.88;;;18.90;47.10;;;;;;5073648;28;20215;-72
2023/04/12 00:43:58;;;;;;;5.78;1.80;;;18.80;47.10;;;;;;5073542;28;20246;-72
2023/04/12 00:46:25;;;;;;;9.30;2.08;;;18.80;47.10;;;;;;5073547;28;20264;-71
2023/04/12 00:48:52;;;;;;;4.40;1.67;;;18.80;47.10;;;;;;5073012;28;20187;-75
2023/04/12 00:51:24;;;;;;;4.95;1.65;;;18.80;47.10;;;;;;5073478;28;20183;-72
2023/04/12 00:53:53;;;;;;;5.55;1.80;;;18.80;47.10;;;;;;5073059;28;20187;-71
2023/04/12 00:56:22;;;;;;;8.55;1.80;;;18.80;47.10;;;;;;5073378;28;20236;-73
2023/04/12 00:58:49;;;;;;;7.25;1.92;;;18.80;47.10;;;;;;5073276;28;20202;-75
2023/04/12 01:01:18;;;;;;;6.97;1.63;;;18.80;47.10;;;;;;5072770;28;20255;-72
2023/04/12 01:03:45;;;;;;;4.75;2.00;;;18.80;47.10;;;;;;5072665;28;20187;-72
2023/04/12 01:06:19;;;;;;;5.97;1.73;;;18.80;47.10;;;;;;5055587;28;20199;-71
2023/04/12 01:08:58;;;;;;;6.72;1.85;;;18.80;47.10;;;;;;5073064;28;20187;-73
2023/04/12 01:11:32;;;;;;;6.25;1.67;;;18.80;47.10;;;;;;5073045;28;20195;-73
2023/04/12 01:14:05;;;;;;;6.82;1.75;;;18.80;47.10;;;;;;5072936;28;20221;-72
2023/04/12 01:16:39;;;;;;;7.32;2.13;;;18.80;47.10;;;;;;5072941;28;20240;-72
2023/04/12 01:19:19;;;;;;;8.13;2.03;;;18.80;47.10;;;;;;5072887;28;20306;-72
2023/04/12 01:22:06;;;;;;;7.07;1.88;;;18.80;47.10;;;;;;5072714;28;20222;-73
2023/04/12 01:24:43;;;;;;;7.68;1.83;;;18.80;47.10;;;;;;5071197;28;20227;-72
2023/04/12 01:27:22;;;;;;;6.47;1.90;;;18.80;47.10;;;;;;5072677;28;20193;-73
2023/04/12 01:29:50;;;;;;;6.85;1.98;;;18.70;47.00;;;;;;5072379;28;20590;-72
2023/04/12 01:32:20;;;;;;;6.55;2.13;;;18.70;47.10;;;;;;5072320;28;20540;-71
2023/04/12 01:34:47;;;;;;;9.23;2.45;;;18.70;47.00;;;;;;5072379;28;20264;-72
2023/04/12 01:37:18;;;;;;;5.80;1.80;;;18.70;47.00;;;;;;5072550;28;20190;-71
2023/04/12 01:39:46;;;;;;;7.25;1.80;;;18.70;47.00;;;;;;5072329;28;20215;-72
2023/04/12 01:42:20;;;;;;;7.63;1.85;;;18.70;47.00;;;;;;5072444;28;20689;-71
2023/04/12 01:44:48;;;;;;;7.40;2.10;;;18.70;47.00;;;;;;5072121;28;20754;-71
2023/04/12 01:47:15;;;;;;;9.82;2.08;;;18.70;47.00;;;;;;5072490;28;20556;-72
2023/04/12 01:49:50;;;;;;;5.68;1.83;;;18.70;47.00;;;;;;5072449;28;20219;-72
2023/04/12 01:52:20;;;;;;;6.75;1.70;;;18.70;47.00;;;;;;5073547;28;20197;-72
2023/04/12 01:54:51;;;;;;;9.48;2.13;;;18.70;46.90;;;;;;5072395;28;20222;-72
2023/04/12 01:57:20;;;;;;;5.35;1.83;;;18.70;46.90;;;;;;5072227;28;20183;-72
2023/04/12 01:59:50;;;;;;;6.50;2.35;;;18.70;46.90;;;;;;5072489;28;20225;-72
2023/04/12 02:02:18;;;;;;;5.78;2.08;;;18.60;46.80;;;;;;5071844;28;20219;-72
2023/04/12 02:04:46;;;;;;;5.07;1.90;;;18.70;46.80;;;;;;5072391;28;20223;-72
2023/04/12 02:07:17;;;;;;;6.68;1.40;;;18.70;46.80;;;;;;5072102;28;20206;-71
2023/04/12 02:09:44;;;;;;;5.10;1.67;;;18.60;46.70;;;;;;5071650;28;20297;-72
2023/04/12 02:12:11;;;;;;;7.22;2.08;;;18.60;46.70;;;;;;5072226;28;20187;-72
2023/04/12 02:14:40;;;;;;;3.78;1.40;;;18.60;46.70;;;;;;5071753;28;20780;-72
2023/04/12 02:17:08;;;;;;;5.80;1.70;;;18.60;46.60;;;;;;5072002;28;20224;-76
2023/04/12 02:19:36;;;;;;;6.93;1.60;;;18.60;46.60;;;;;;5071860;28;20222;-71
2023/04/12 02:22:04;;;;;;;5.30;1.73;;;18.60;46.60;;;;;;5072105;28;20237;-72
2023/04/12 02:24:32;;;;;;;7.47;1.90;;;18.60;46.70;;;;;;5070573;28;20250;-72
2023/04/12 02:27:00;;;;;;;7.93;1.90;;;18.60;46.60;;;;;;5071840;28;20690;-71
2023/04/12 02:29:27;;;;;;;6.88;1.67;;;18.60;46.60;;;;;;5071923;28;20214;-75
2023/04/12 02:31:56;;;;;;;5.25;1.63;;;18.60;46.60;;;;;;5072096;28;20183;-75
2023/04/12 02:34:23;;;;;;;6.45;1.85;;;18.60;46.50;;;;;;5071653;28;20215;-72
2023/04/12 02:36:50;;;;;;;4.97;1.45;;;18.60;46.50;;;;;;5071991;28;20244;-73
2023/04/12 02:39:18;;;;;;;5.65;1.80;;;18.60;47.10;;;;;;5072011;28;20214;-73
2023/04/12 02:41:45;;;;;;;5.38;1.90;;;18.60;46.50;;;;;;5071538;28;20301;-72
2023/04/12 02:44:12;;;;;;;6.13;1.50;;;18.50;46.30;;;;;;5071385;28;20211;-72
2023/04/12 02:46:39;;;;;;;4.68;1.77;;;18.60;46.40;;;;;;5074943;28;20233;-72
2023/04/12 02:49:08;;;;;;;6.03;1.60;;;18.60;46.40;;;;;;5075442;28;20223;-76
2023/04/12 02:51:37;;;;;;;6.57;1.75;;;18.60;46.40;;;;;;5075680;28;20199;-72
2023/04/12 02:54:04;;;;;;;4.60;1.60;;;18.60;46.30;;;;;;5075260;28;20671;-72
2023/04/12 02:56:34;;;;;;;5.43;1.55;;;18.50;46.20;;;;;;5074210;28;20278;-73
2023/04/12 02:59:02;;;;;;;5.70;1.50;;;18.50;46.20;;;;;;5075119;28;20191;-72
2023/04/12 03:01:29;;;;;;;4.63;1.70;;;18.50;46.20;;;;;;5075381;28;20218;-72
2023/04/12 03:03:56;;;;;;;6.47;1.70;;;18.50;46.10;;;;;;5075300;28;20191;-74
2023/04/12 03:06:26;;;;;;;4.80;1.50;;;18.50;46.10;;;;;;5075498;28;20195;-73
2023/04/12 03:08:53;;;;;;;4.90;1.63;;;18.50;46.10;;;;;;5075285;28;20183;-73
2023/04/12 03:11:20;;;;;;;4.38;1.48;;;18.50;46.00;;;;;;5075080;28;20653;-72
2023/04/12 03:13:47;;;;;;;6.78;1.83;;;18.50;46.00;;;;;;5074894;28;20199;-72
2023/04/12 03:16:22;;;;;;;5.28;1.52;;;18.50;46.00;;;;;;5075528;28;20218;-71
2023/04/12 03:18:50;;;;;;;3.65;1.83;;;18.50;46.00;;;;;;5074905;28;20571;-72
2023/04/12 03:21:17;;;;;;;5.30;1.65;;;18.50;46.00;;;;;;5075326;28;20270;-72
2023/04/12 03:23:47;;;;;;;5.00;1.80;;;18.50;46.00;;;;;;5073817;28;20248;-71
2023/04/12 03:26:14;;;;;;;3.88;1.25;;;18.50;46.00;;;;;;5074842;28;20234;-73
2023/04/12 03:28:41;;;;;;;4.15;1.48;;;18.50;45.90;;;;;;5074885;28;20195;-73
2023/04/12 03:31:09;;;;;;;7.25;1.70;;;18.50;46.00;;;;;;5074952;28;20218;-72
2023/04/12 03:33:36;;;;;;;5.45;1.60;;;18.50;45.90;;;;;;5074756;28;20213;-73
2023/04/12 03:36:04;;;;;;;5.28;1.48;;;18.50;45.90;;;;;;5074614;28;20219;-72
2023/04/12 03:38:31;;;;;;;6.00;1.70;;;18.40;45.80;;;;;;5039570;28;20195;-75
2023/04/12 03:41:00;;;;;;;6.95;1.75;;;18.40;45.80;;;;;;5074887;28;20238;-72
2023/04/12 03:43:29;;;;;;;4.43;1.50;;;18.50;45.80;;;;;;5074768;28;20195;-76
2023/04/12 03:45:57;;;;;;;4.35;1.80;;;18.40;45.80;;;;;;5074620;28;20250;-72
2023/04/12 03:48:24;;;;;;;4.28;1.60;;;18.40;45.70;;;;;;5073530;28;20194;-74
2023/04/12 03:50:53;;;;;;;4.25;1.40;;;18.40;45.70;;;;;;5073302;28;20305;-75
2023/04/12 03:53:20;;;;;;;4.43;1.40;;;18.40;45.70;;;;;;5074538;28;20614;-72
2023/04/12 03:55:48;;;;;;;6.28;1.85;;;18.40;45.70;;;;;;5074442;28;20250;-74
2023/04/12 03:58:17;;;;;;;5.07;1.75;;;18.40;46.30;;;;;;5074635;28;20190;-71
2023/04/12 04:00:45;;;;;;;7.50;1.48;;;18.40;45.60;;;;;;5073974;28;20700;-76
2023/04/12 04:03:13;;;;;;;6.22;1.83;;;18.40;45.60;;;;;;5073966;28;20274;-72
2023/04/12 04:05:40;;;;;;;3.95;1.33;;;18.40;45.60;;;;;;5074045;28;20219;-71
2023/04/12 04:08:07;;;;;;;5.10;1.55;;;18.40;45.60;;;;;;5074410;28;20221;-75
2023/04/12 04:10:35;;;;;;;3.92;1.73;;;18.40;45.60;;;;;;5072807;28;20726;-72
2023/04/12 04:13:02;;;;;;;7.72;1.90;;;18.40;45.50;;;;;;5073789;28;20672;-71
2023/04/12 04:15:31;;;;;;;5.75;1.60;;;18.40;45.50;;;;;;5073749;28;20739;-76
2023/04/12 04:17:58;;;;;;;3.78;1.30;;;18.40;45.50;;;;;;5073055;28;20195;-72
2023/04/12 04:20:25;;;;;;;5.90;1.90;;;18.40;45.50;;;;;;5073660;28;20210;-72
2023/04/12 04:22:52;;;;;;;6.22;1.80;;;18.30;45.40;;;;;;5073582;28;20274;-74
2023/04/12 04:25:20;;;;;;;5.38;1.48;;;18.40;45.50;;;;;;5072314;28;20265;-71
2023/04/12 04:27:48;;;;;;;6.53;1.92;;;18.40;45.40;;;;;;5073974;28;20199;-73
2023/04/12 04:30:15;;;;;;;4.63;1.45;;;18.40;45.40;;;;;;5073721;28;20215;-75
2023/04/12 04:32:44;;;;;;;4.80;1.30;;;18.30;45.30;;;;;;5073470;28;20200;-72
2023/04/12 04:35:15;;;;;;;4.10;1.60;;;18.30;45.30;;;;;;5072273;28;20770;-72
2023/04/12 04:37:43;;;;;;;6.32;1.38;;;18.30;45.20;;;;;;5073696;28;20191;-72
2023/04/12 04:40:11;;;;;;;4.03;1.20;;;18.30;45.20;;;;;;5073751;28;20223;-72
2023/04/12 04:42:38;;;;;;;3.60;1.60;;;18.30;45.20;;;;;;5073138;28;20219;-72
2023/04/12 04:45:12;;;;;;;4.63;1.60;;;18.30;45.10;;;;;;5073464;28;20218;-72
2023/04/12 04:47:39;;;;;;;3.20;1.33;;;18.30;45.20;;;;;;5040059;28;20672;-74
2023/04/12 04:50:10;;;;;;;4.82;1.55;;;18.30;45.10;;;;;;5073366;28;20302;-74
2023/04/12 04:52:38;;;;;;;3.97;1.58;;;18.40;45.20;;;;;;5073080;28;20209;-74
2023/04/12 04:55:06;;;;;;;3.95;1.20;;;18.40;45.10;;;;;;5073391;28;20306;-72
2023/04/12 04:57:33;;;;;;;3.42;1.30;;;18.40;45.10;;;;;;5073422;28;20249;-72
2023/04/12 05:00:01;;;;;;;6.03;1.70;;;18.40;45.10;;;;;;5072864;28;20218;-72
2023/04/12 05:02:28;;;;;;;4.45;1.40;;;18.50;45.10;;;;;;5073106;28;20211;-73
2023/04/12 05:04:56;;;;;;;3.58;1.45;;;18.50;45.10;;;;;;5073130;28;20219;-75
2023/04/12 05:07:25;;;;;;;1.85;1.10;;;18.50;45.00;;;;;;5073086;28;20210;-72
2023/04/12 05:09:52;;;;;;;4.15;1.33;;;18.50;45.00;;;;;;5072548;28;20214;-72
2023/04/12 05:12:19;;;;;;;3.65;1.40;;;18.60;45.10;;;;;;5072973;28;20191;-72
2023/04/12 05:14:46;;;;;;;4.90;1.38;;;18.60;45.70;;;;;;5072894;28;20250;-72
2023/04/12 05:17:13;;;;;;;4.35;1.52;;;18.60;45.00;;;;;;5072655;28;20226;-73
2023/04/12 05:19:42;;;;;;;4.50;1.50;;;18.70;45.10;;;;;;5072723;28;20688;-72
2023/04/12 05:22:09;;;;;;;3.78;1.27;;;18.70;45.10;;;;;;5072712;28;20218;-73
2023/04/12 05:24:38;;;;;;;4.82;1.52;;;18.70;45.10;;;;;;5071308;28;20555;-72
2023/04/12 05:27:05;;;;;;;4.57;1.40;;;18.70;45.10;;;;;;5072732;28;20248;-74
2023/04/12 05:29:32;;;;;;;3.17;1.25;;;18.80;45.20;;;;;;5072753;28;20297;-72
2023/04/12 05:31:59;;;;;;;3.80;1.05;;;18.80;45.20;;;;;;5072528;28;20183;-74
2023/04/12 05:34:26;;;;;;;3.40;1.50;;;18.80;45.20;;;;;;5072396;28;20191;-75
2023/04/12 05:36:53;;;;;;;4.65;1.20;;;18.90;45.30;;;;;;5072578;28;20649;-73
2023/04/12 05:39:20;;;;;;;2.20;1.25;;;18.90;45.30;;;;;;5072552;28;20194;-73
2023/04/12 05:41:49;;;;;;;3.15;1.40;;;18.90;45.30;;;;;;5072233;28;20265;-72
2023/04/12 05:44:17;;;;;;;4.15;1.55;;;18.90;45.30;;;;;;5072492;28;20198;-72
2023/04/12 05:46:44;;;;;;;3.28;1.20;;;18.90;45.30;;;;;;5072552;28;20240;-74
2023/04/12 05:49:11;;;;;;;4.00;1.10;;;18.90;45.30;;;;;;5071348;28;20285;-72
2023/04/12 05:51:38;;;;;;;4.07;1.33;;;18.90;45.30;;;;;;5072132;28;20195;-72
2023/04/12 05:54:05;;;;;;;3.40;1.48;;;19.00;45.40;;;;;;5072440;28;20202;-72
2023/04/12 05:56:33;;;;;;;3.10;1.20;;;19.00;45.30;;;;;;5072437;28;20745;-76
2023/04/12 05:59:01;;;;;;;4.82;1.25;;;19.00;45.30;;;;;;5071788;28;20191;-72
2023/04/12 06:01:30;;;;;;;5.20;1.27;;;19.00;45.30;;;;;;5071352;28;20268;-72
2023/04/12 06:03:57;;;;;;;4.15;1.40;;;19.10;45.40;;;;;;5072351;28;20187;-72
2023/04/12 06:06:29;;;;;;;3.40;1.20;;;19.10;45.40;;;;;;5070853;28;20218;-72
2023/04/12 06:08:59;;;;;;;3.08;1.10;;;19.10;45.40;;;;;;5072367;28;20232;-72
2023/04/12 06:11:26;;;;;;;3.17;1.17;;;19.10;45.40;;;;;;5072177;28;20246;-72
2023/04/12 06:13:53;;;;;;;4.18;1.33;;;19.10;45.40;;;;;;5071975;28;20195;-72
2023/04/12 06:16:22;;;;;;;3.83;1.05;;;19.10;45.40;;;;;;5071832;28;20272;-72
2023/04/12 06:18:49;;;;;;;4.95;1.60;;;19.10;45.40;;;;;;5072153;28;20252;-71
2023/04/12 06:21:16;;;;;;;5.00;1.40;;;19.10;45.40;;;;;;5074842;28;20264;-72
2023/04/12 06:23:43;;;;;;;3.35;1.10;;;19.10;45.40;;;;;;5075855;28;20218;-72
2023/04/12 06:26:11;;;;;;;4.28;1.10;;;19.20;45.50;;;;;;5075686;28;20238;-73
2023/04/12 06:28:38;;;;;;;3.55;1.30;;;19.20;45.50;;;;;;5076116;28;20679;-72
2023/04/12 06:31:05;;;;;;;2.72;1.13;;;19.20;45.40;;;;;;5075721;28;20250;-75
2023/04/12 06:33:35;;;;;;;3.58;1.35;;;19.20;45.40;;;;;;5075817;28;20194;-72
2023/04/12 06:36:02;;;;;;;3.53;1.20;;;19.20;45.40;;;;;;5074472;28;20232;-72
2023/04/12 06:38:29;;;;;;;3.72;1.40;;;19.20;45.40;;;;;;5072390;28;20190;-72
2023/04/12 06:40:57;;;;;;;4.60;1.25;;;19.20;45.30;;;;;;5085156;28;20215;-74
2023/04/12 06:43:24;;;;;;;4.57;1.50;;;19.20;45.30;;;;;;5072950;28;20226;-75
2023/04/12 06:45:52;;;;;;;4.20;1.30;;;19.20;45.10;;;;;;5081145;28;20219;-75
2023/04/12 06:48:19;;;;;;;4.43;1.50;;;19.30;45.10;;;;;;5077545;28;20607;-75
2023/04/12 06:50:48;;;;;;;4.07;1.30;;;19.30;45.00;;;;;;5077172;28;20233;-75
2023/04/12 06:53:15;;;;;;;3.70;1.13;;;19.30;44.90;;;;;;5074735;28;20199;-75
2023/04/12 06:55:42;;;;;;;5.50;1.67;;;19.30;44.70;;;;;;5088651;28;20727;-76
2023/04/12 06:58:10;;;;;;;5.13;1.60;;;19.40;44.60;;;;;;5099714;28;20201;-75
2023/04/12 07:00:38;;;;;;;10.05;1.77;;;19.40;44.70;;;;;;5086730;28;20230;-75
2023/04/12 07:03:05;;;;;;;3.85;1.60;;;19.40;44.70;;;;;;5092523;28;20252;-75
2023/04/12 07:05:32;;;;;;;4.95;1.48;;;19.50;44.70;;;;;;5090875;28;20296;-75
2023/04/12 07:08:01;;;;;;;2.72;1.30;;;19.50;44.80;;;;;;5107104;28;20263;-74
2023/04/12 07:10:28;;;;;;;6.25;1.70;;;19.50;44.70;;;;;;5106374;27;20229;-74
2023/04/12 07:12:57;;;;;;;8.75;1.60;;;19.60;44.70;;;;;;5092583;28;20194;-75
2023/04/12 07:15:25;;;;;;;4.50;1.45;;;19.60;44.60;;;;;;5078815;28;20229;-70
2023/04/12 07:17:59;;;;;;;6.35;1.50;;;19.70;44.60;;;;;;5070071;28;20202;-73
2023/04/12 07:20:31;;;;;;;4.57;1.50;;;19.60;44.40;;;;;;5087192;28;20222;-75
2023/04/12 07:23:11;;;;;;;5.80;1.40;;;19.60;44.30;;;;;;5036753;28;20226;-73
2023/04/12 07:25:40;;;;;;;5.00;1.52;;;19.70;44.40;;;;;;5018664;28;20226;-75
2023/04/12 07:28:07;;;;;;;5.10;1.50;;;19.70;44.40;;;;;;5034470;28;20224;-76
2023/04/12 07:30:35;;;;;;;4.30;1.38;;;19.70;44.40;;;;;;5063820;28;20223;-75
2023/04/12 07:33:05;;;;;;;5.40;1.83;;;19.70;44.40;;;;;;4986577;28;20264;-74
2023/04/12 07:35:35;;;;;;;4.28;1.30;;;19.80;44.40;;;;;;5065083;28;20250;-73
2023/04/12 07:38:07;;;;;;;5.90;1.50;;;19.80;44.50;;;;;;5004197;28;20190;-74
2023/04/12 07:40:36;;;;;;;4.45;1.30;;;19.80;44.50;;;;;;5068260;28;20238;-76
2023/04/12 07:43:03;;;;;;;5.18;1.60;;;19.90;44.50;;;;;;5052406;28;20768;-73
2023/04/12 07:45:31;;;;;;;6.70;1.60;;;19.90;44.60;;;;;;5020025;28;20225;-75
2023/04/12 07:47:59;;;;;;;4.32;1.45;;;19.90;44.50;;;;;;5076426;28;20193;-75
2023/04/12 07:50:28;;;;;;;5.43;1.63;;;19.90;44.50;;;;;;5092142;28;20242;-75
2023/04/12 07:53:15;;;;;;;7.05;1.60;;;19.90;44.50;;;;;;5072973;28;20733;-75
2023/04/12 07:55:48;;;;;;;3.53;1.23;;;19.90;44.50;;;;;;5090457;28;20217;-74
2023/04/12 07:58:20;;;;;;;4.28;1.40;;;20.00;44.50;;;;;;5090916;28;20201;-75
2023/04/12 08:00:48;;;;;;;6.85;1.40;;;20.00;44.50;;;;;;5092047;28;20594;-75
2023/04/12 08:03:19;;;;;;;5.20;1.60;;;20.00;44.50;;;;;;5092009;28;20242;-75
2023/04/12 08:05:52;;;;;;;6.20;1.90;;;20.00;44.40;;;;;;5091321;28;20601;-75
2023/04/12 08:08:20;;;;;;;4.22;1.40;;;20.10;44.50;;;;;;5091864;28;20194;-75
2023/04/12 08:10:50;;;;;;;5.43;1.33;;;20.10;44.50;;;;;;5092098;28;20298;-74
2023/04/12 08:13:21;;;;;;;6.03;1.45;;;20.10;44.50;;;;;;5091544;28;20545;-75
2023/04/12 08:15:50;;;;;;;6.85;1.20;;;20.10;44.40;;;;;;5056830;28;20591;-73
2023/04/12 08:18:20;;;;;;;5.95;1.23;;;20.10;44.30;;;;;;5090599;28;20237;-75
2023/04/12 08:20:49;;;;;;;3.08;1.33;;;20.10;44.20;;;;;;5092049;28;20278;-76
2023/04/12 08:23:17;;;;;;;3.97;1.40;;;20.10;44.30;;;;;;5091607;28;20694;-76
2023/04/12 08:25:47;;;;;;;5.60;1.80;;;20.10;44.20;;;;;;5087478;28;20283;-74
2023/04/12 08:28:17;;;;;;;5.72;1.60;;;20.10;44.20;;;;;;5090059;28;20194;-75
2023/04/12 08:30:45;;;;;;;3.88;1.33;;;20.10;44.10;;;;;;5090859;28;20210;-75
2023/04/12 08:33:14;;;;;;;4.97;1.40;;;20.10;44.10;;;;;;5055670;28;20196;-76
2023/04/12 08:35:41;;;;;;;3.78;1.45;;;20.10;44.00;;;;;;5006627;28;20751;-76
2023/04/12 08:38:11;;;;;;;7.80;1.50;;;20.20;44.00;;;;;;5091073;28;20610;-76
2023/04/12 08:40:43;;;;;;;6.88;1.63;;;20.20;44.00;;;;;;5090542;28;20263;-75
2023/04/12 08:43:15;;;;;;;7.78;1.80;;;20.20;44.00;;;;;;5055972;28;20249;-75
2023/04/12 08:45:55;;;;;;;5.70;1.77;;;20.20;43.80;;;;;;5054806;28;20218;-76
2023/04/12 08:48:29;;;;;;;4.82;1.38;;;20.30;43.70;;;;;;5083512;28;20208;-75
2023/04/12 08:50:59;;;;;;;7.55;1.65;;;20.20;43.70;;;;;;5057677;28;20220;-74
2023/04/12 08:53:30;;;;;;;6.22;1.50;;;20.30;43.70;;;;;;5077546;28;20202;-73
2023/04/12 08:55:59;;;;;;;4.10;1.60;;;20.30;43.70;;;;;;5055527;28;20270;-74
2023/04/12 08:58:33;;;;;;;7.78;1.63;;;20.30;43.70;;;;;;5055800;28;20206;-75
2023/04/12 09:01:02;;;;;;;4.75;1.45;;;20.30;43.70;;;;;;5048289;28;20217;-73
2023/04/12 09:03:30;;;;;;;11.73;1.95;;;20.30;43.70;;;;;;5086330;28;20209;-74
2023/04/12 09:05:57;;;;;;;6.18;1.80;;;20.30;43.50;;;;;;5090420;28;20302;-74
2023/04/12 09:08:25;;;;;;;5.55;1.40;;;20.30;43.50;;;;;;5086540;28;20522;-74
2023/04/12 09:10:52;;;;;;;5.10;1.70;;;20.30;43.40;;;;;;5090508;28;20653;-74
2023/04/12 09:13:31;;;;;;;7.07;1.60;;;20.30;43.30;;;;;;5090521;28;20247;-74
2023/04/12 09:15:59;;;;;;;3.85;1.63;;;20.30;43.20;;;;;;5091941;28;20729;-80
2023/04/12 09:18:27;;;;;;;5.72;1.60;;;20.40;43.20;;;;;;5090723;28;20232;-82
2023/04/12 09:21:07;;;;;;;6.07;1.50;;;20.40;43.40;;;;;;5090621;28;20270;-80
2023/04/12 09:23:35;;;;;;;6.50;1.50;;;20.40;43.20;;;;;;5081889;28;20214;-77
2023/04/12 09:26:02;;;;;;;6.20;1.48;;;20.40;43.20;;;;;;5092614;28;20353;-78
2023/04/12 09:28:30;;;;;;;6.78;1.50;;;20.40;43.20;;;;;;5094962;28;20202;-81
2023/04/12 09:30:59;;;;;;;6.88;1.80;;;20.40;43.20;;;;;;5090164;28;20275;-77
2023/04/12 09:33:37;;;;;;;4.90;1.55;;;20.50;43.20;;;;;;5090459;28;20190;-74
2023/04/12 09:36:05;;;;;;;4.05;1.52;;;20.50;43.00;;;;;;5090167;28;20209;-73
2023/04/12 09:38:35;;;;;;;9.98;1.90;;;20.50;42.80;;;;;;5090241;28;20679;-76
2023/04/12 09:41:17;;;;;;;5.30;1.40;;;20.50;42.80;;;;;;5054971;28;20289;-72
2023/04/12 09:43:44;;;;;;;7.93;1.95;;;20.50;42.70;;;;;;5090024;28;20245;-79
2023/04/12 09:46:13;;;;;;;5.65;1.60;;;20.50;42.40;;;;;;5085274;28;20226;-76
2023/04/12 09:48:48;;;;;;;5.57;1.60;;;20.50;42.80;;;;;;5090353;28;20293;-77
2023/04/12 09:51:25;;;;;;;5.63;1.85;;;20.50;42.70;;;;;;5090182;28;20334;-76
2023/04/12 09:53:53;;;;;;;5.82;1.98;;;20.60;42.70;;;;;;5090029;28;20205;-76
2023/04/12 09:56:23;;;;;;;6.10;1.30;;;20.50;42.60;;;;;;5090111;28;20283;-77
2023/04/12 09:58:52;;;;;;;8.45;1.67;;;20.60;42.70;;;;;;5077780;28;20198;-75
2023/04/12 10:01:22;;;;;;;8.70;1.60;;;20.60;42.60;;;;;;5088475;28;20858;-75
2023/04/12 10:03:52;;;;;;;6.38;1.65;;;20.60;42.40;;;;;;5088941;28;20217;-74
2023/04/12 10:06:21;;;;;;;6.88;1.75;;;20.60;42.20;;;;;;5089046;28;20263;-77
2023/04/12 10:08:49;;;;;;;3.92;1.63;;;20.60;42.20;;;;;;5090058;28;20193;-72
2023/04/12 10:11:18;;;;;;;9.50;2.05;;;20.60;42.30;;;;;;5089540;28;20582;-78
2023/04/12 10:13:46;;;;;;;8.48;1.85;;;20.60;41.80;;;;;;5089624;28;20248;-78
2023/04/12 10:16:15;;;;;;;8.68;1.75;;;20.60;42.20;;;;;;5089512;28;20275;-78
2023/04/12 10:18:44;;;;;;;7.28;1.77;;;20.60;42.10;;;;;;5089977;28;20186;-76
2023/04/12 10:21:13;;;;;;;7.38;1.85;;;20.60;41.80;;;;;;5089648;28;20298;-78
2023/04/12 10:23:43;;;;;;;7.88;1.60;;;20.60;41.90;;;;;;5088151;28;20221;-78
2023/04/12 10:26:10;;;;;;;5.43;1.67;;;20.60;41.80;;;;;;5089061;28;20221;-78
2023/04/12 10:28:38;;;;;;;4.10;1.42;;;20.60;41.80;;;;;;5088777;28;20198;-76
2023/04/12 10:31:37;;;;;;;5.53;1.60;;;20.60;41.80;;;;;;5089267;28;20214;-77
2023/04/12 10:34:05;;;;;;;6.55;1.88;;;20.60;41.80;;;;;;5089018;28;20675;-77
2023/04/12 10:36:53;;;;;;;7.65;1.80;;;20.60;41.80;;;;;;5085592;28;20213;-79
2023/04/12 10:39:36;;;;;;;10.50;1.75;;;20.60;41.80;;;;;;5089760;28;20227;-78
2023/04/12 10:42:25;;;;;;;4.60;1.60;;;20.60;41.60;;;;;;5086942;28;20220;-77
2023/04/12 10:44:55;;;;;;;4.80;1.58;;;20.60;41.50;;;;;;5081081;28;20213;-78
2023/04/12 10:48:00;;;;;;;8.57;1.75;;;20.60;41.50;;;;;;5085649;28;20689;-72
2023/04/12 10:50:29;;;;;;;8.60;1.80;;;20.60;41.40;;;;;;5085128;28;20214;-77
2023/04/12 10:53:24;;;;;;;4.50;1.70;;;20.60;41.50;;;;;;5087084;28;20671;-81
2023/04/12 10:55:52;;;;;;;7.30;1.60;;;20.60;41.40;;;;;;5085854;28;20579;-78
2023/04/12 10:58:56;;;;;;;6.85;1.60;;;20.60;41.60;;;;;;5085779;28;20201;-78
2023/04/12 11:01:23;;;;;;;9.38;2.28;;;20.60;41.30;;;;;;5080727;28;20218;-78
2023/04/12 11:04:07;;;;;;;3.30;1.20;;;20.60;41.30;;;;;;5078448;28;20234;-77
2023/04/12 11:07:01;;;;;;;7.30;1.65;;;20.60;41.30;;;;;;5086819;28;20218;-74
2023/04/12 11:09:39;;;;;;;5.20;1.80;;;20.60;41.30;;;;;;5077060;28;20197;-73
2023/04/12 11:12:14;;;;;;;7.43;2.05;;;20.60;41.20;;;;;;5087984;28;20221;-78
2023/04/12 11:14:46;;;;;;;8.35;1.73;;;20.60;41.10;;;;;;5087785;28;20189;-76
2023/04/12 11:17:34;;;;;;;7.18;1.75;;;20.60;41.20;;;;;;5086803;28;20247;-76
2023/04/12 11:20:03;;;;;;;6.47;1.67;;;20.60;41.00;;;;;;5084292;28;20552;-75
2023/04/12 11:22:32;;;;;;;10.70;2.17;;;20.60;41.00;;;;;;5090600;28;20659;-75
2023/04/12 11:25:02;;;;;;;6.10;1.80;;;20.60;41.00;;;;;;5089288;28;20240;-77
2023/04/12 11:27:30;;;;;;;7.18;1.55;;;20.60;41.00;;;;;;5088782;28;20305;-75
2023/04/12 11:29:59;;;;;;;7.00;2.00;;;20.60;41.10;;;;;;5089381;28;20209;-77
2023/04/12 11:32:28;;;;;;;7.50;2.00;;;20.70;41.20;;;;;;5087585;28;20237;-73
2023/04/12 11:34:57;;;;;;;6.32;1.60;;;20.60;41.00;;;;;;5089074;28;20358;-76
2023/04/12 11:37:26;;;;;;;6.75;1.80;;;20.60;40.80;;;;;;5092249;28;20229;-77
2023/04/12 11:39:57;;;;;;;3.22;1.33;;;20.60;40.90;;;;;;5091694;28;20190;-78
2023/04/12 11:42:29;;;;;;;7.05;2.00;;;20.60;40.90;;;;;;5092147;28;20300;-76
2023/04/12 11:44:56;;;;;;;9.35;2.00;;;20.70;40.90;;;;;;5092894;28;20746;-76
2023/04/12 11:47:26;;;;;;;4.68;1.70;;;20.60;40.70;;;;;;5093164;28;20224;-77
2023/04/12 11:49:58;;;;;;;5.43;1.80;;;20.60;40.70;;;;;;5093151;28;20186;-78
2023/04/12 11:52:30;;;;;;;7.03;2.22;;;20.60;40.80;;;;;;5092893;28;20274;-76
2023/04/12 11:55:00;;;;;;;7.93;1.77;;;20.60;40.70;;;;;;5092831;28;20651;-75
2023/04/12 11:57:29;;;;;;;8.48;2.08;;;20.60;40.60;;;;;;5086076;28;20221;-70
2023/04/12 12:00:03;;;;;;;7.13;2.20;;;20.60;40.70;;;;;;5081744;28;20364;-75
2023/04/12 12:02:34;;;;;;;9.18;1.85;;;20.70;40.70;;;;;;5094722;28;20245;-78
2023/04/12 12:05:04;;;;;;;9.93;1.80;;;20.60;40.40;;;;;;5081466;28;20718;-77
2023/04/12 12:07:32;;;;;;;10.13;1.70;;;20.70;40.70;;;;;;5078629;28;20234;-79
2023/04/12 12:10:00;;;;;;;9.65;2.10;;;20.70;40.60;;;;;;5087993;28;20206;-77
2023/04/12 12:12:29;;;;;;;8.88;2.00;;;20.70;40.80;;;;;;5079601;28;20267;-76
2023/04/12 12:15:00;;;;;;;18.48;2.25;;;20.70;40.60;;;;;;5084073;28;20990;-73
2023/04/12 12:17:29;;;;;;;8.80;2.50;;;20.70;40.00;;;;;;5070020;28;20594;-80
2023/04/12 12:20:00;;;;;;;5.63;1.75;;;20.70;40.30;;;;;;5083921;28;20190;-78
2023/04/12 12:22:27;;;;;;;9.75;2.30;;;20.70;40.50;;;;;;5070245;28;20226;-76
2023/04/12 12:24:59;;;;;;;12.77;2.38;;;20.70;40.50;;;;;;5088222;28;20671;-79
2023/04/12 12:27:36;;;;;;;10.48;2.10;;;20.80;40.50;;;;;;5088539;28;20230;-80
2023/04/12 12:30:10;;;;;;;8.10;2.28;;;20.70;40.30;;;;;;5072741;28;20885;-79
2023/04/12 12:32:38;;;;;;;10.35;2.33;;;20.80;40.00;;;;;;5082914;28;20774;-73
2023/04/12 12:35:14;;;;;;;13.20;2.20;;;20.70;39.90;;;;;;5086185;28;20186;-76
2023/04/12 12:37:54;;;;;;;11.43;2.58;;;20.70;39.70;;;;;;5066904;28;20305;-77
2023/04/12 12:40:31;;;;;;;12.93;2.33;;;20.80;39.70;;;;;;5052227;28;20220;-78
2023/04/12 12:43:02;;;;;;;10.57;2.40;;;20.70;39.90;;;;;;5088033;28;20221;-75
2023/04/12 12:45:33;;;;;;;10.48;2.60;;;20.80;39.80;;;;;;5078701;28;20267;-74
2023/04/12 12:48:10;;;;;;;10.38;2.13;;;20.80;39.70;;;;;;5080415;28;20253;-75
2023/04/12 12:50:38;;;;;;;11.88;2.75;;;20.80;39.70;;;;;;5039109;28;20290;-76
2023/04/12 12:53:09;;;;;;;11.45;2.83;;;20.80;39.50;;;;;;5042623;28;20594;-76
2023/04/12 12:55:36;;;;;;;11.38;2.58;;;20.90;39.60;;;;;;4978609;28;20300;-77
2023/04/12 12:58:06;;;;;;;11.75;2.45;;;20.80;39.20;;;;;;5026954;28;20227;-76
2023/04/12 13:00:44;;;;;;;10.88;2.40;;;20.80;39.20;;;;;;5039741;28;20207;-76